sensor_id;sensor_type;location;lat;lon;timestamp;pressure;altitude;pressure_sealevel;temperature;humidity
13968;BME280;39536;52.198;9.920;2023-07-13T00:00:47;100454.81;;;21.01;100.00
13968;BME280;39536;52.198;9.920;2023-07-13T00:03:15;100443.13;;;20.81;100.00
13968;BME280;39536;52.198;9.920;2023-07-13T00:05:42;100455.72;;;20.77;100.00
13968;BME280;39536;52.198;9.920;2023-07-13T00:08:09;100461.34;;;20.62;100.00
13968;BME280;39536;52.198;9.920;2023-07-13T00:10:39;100468.13;;;20.66;100.00
13968;BME280;39536;52.198;9.920;2023-07-13T00:13:06;100468.59;;;20.60;100.00
13968;BME280;39536;52.198;9.920;2023-07-13T00:15:33;100469.66;;;20.57;100.00
13968;BME280;39536;52.198;9.920;2023-07-13T00:18:00;100458.84;;;20.71;100.00
13968;BME280;39536;52.198;9.920;2023-07-13T00:20:28;100467.84;;;20.58;100.00
13968;BME280;39536;52.198;9.920;2023-07-13T00:22:55;100478.81;;;20.64;100.00
13968;BME280;39536;52.198;9.920;2023-07-13T00:25:22;100474.97;;;20.68;100.00
13968;BME280;39536;52.198;9.920;2023-07-13T00:27:53;100471.16;;;20.84;100.00
13968;BME280;39536;52.198;9.920;2023-07-13T00:30:20;100473.22;;;20.91;100.00
13968;BME280;39536;52.198;9.920;2023-07-13T00:32:47;100468.66;;;21.05;100.00
13968;BME280;39536;52.198;9.920;2023-07-13T00:35:15;100466.72;;;21.18;100.00
13968;BME280;39536;52.198;9.920;2023-07-13T00:37:43;100465.56;;;21.22;100.00
13968;BME280;39536;52.198;9.920;2023-07-13T00:40:11;100466.84;;;21.28;100.00
13968;BME280;39536;52.198;9.920;2023-07-13T00:42:38;100461.44;;;21.18;100.00
13968;BME280;39536;52.198;9.920;2023-07-13T00:45:07;100461.44;;;21.18;100.00
13968;BME280;39536;52.198;9.920;2023-07-13T00:47:53;100468.19;;;21.22;100.00
13968;BME280;39536;52.198;9.920;2023-07-13T00:50:22;100473.38;;;21.23;100.00
13968;BME280;39536;52.198;9.920;2023-07-13T00:52:52;100462.03;;;21.33;100.00
13968;BME280;39536;52.198;9.920;2023-07-13T00:55:21;100460.94;;;21.24;100.00
13968;BME280;39536;52.198;9.920;2023-07-13T00:57:48;100462.41;;;21.17;100.00
13968;BME280;39536;52.198;9.920;2023-07-13T01:00:15;100457.81;;;21.08;100.00
13968;BME280;39536;52.198;9.920;2023-07-13T01:02:45;100456.00;;;21.08;100.00
13968;BME280;39536;52.198;9.920;2023-07-13T01:05:20;100454.34;;;21.07;100.00
13968;BME280;39536;52.198;9.920;2023-07-13T01:07:49;100453.13;;;21.00;100.00
13968;BME280;39536;52.198;9.920;2023-07-13T01:10:18;100450.34;;;21.02;100.00
13968;BME280;39536;52.198;9.920;2023-07-13T01:12:47;100453.38;;;21.08;100.00
13968;BME280;39536;52.198;9.920;2023-07-13T01:15:35;100458.78;;;20.84;100.00
13968;BME280;39536;52.198;9.920;2023-07-13T01:18:03;100455.66;;;20.90;100.00
13968;BME280;39536;52.198;9.920;2023-07-13T01:20:30;100460.81;;;20.92;100.00
13968;BME280;39536;52.198;9.920;2023-07-13T01:22:58;100456.84;;;20.86;100.00
13968;BME280;39536;52.198;9.920;2023-07-13T01:25:25;100463.78;;;20.65;100.00
13968;BME280;39536;52.198;9.920;2023-07-13T01:27:51;100448.91;;;20.51;100.00
13968;BME280;39536;52.198;9.920;2023-07-13T01:30:18;100465.34;;;20.56;100.00
13968;BME280;39536;52.198;9.920;2023-07-13T01:32:44;100456.34;;;20.70;100.00
13968;BME280;39536;52.198;9.920;2023-07-13T01:35:12;100458.28;;;20.79;100.00
13968;BME280;39536;52.198;9.920;2023-07-13T01:37:38;100454.66;;;20.69;100.00
13968;BME280;39536;52.198;9.920;2023-07-13T01:40:08;100462.16;;;20.51;100.00
13968;BME280;39536;52.198;9.920;2023-07-13T01:42:34;100466.84;;;20.47;100.00
13968;BME280;39536;52.198;9.920;2023-07-13T01:45:01;100470.25;;;20.37;100.00
13968;BME280;39536;52.198;9.920;2023-07-13T01:47:27;100463.75;;;20.29;100.00
13968;BME280;39536;52.198;9.920;2023-07-13T01:49:56;100467.81;;;20.22;100.00
13968;BME280;39536;52.198;9.920;2023-07-13T01:52:22;100463.28;;;20.00;100.00
13968;BME280;39536;52.198;9.920;2023-07-13T01:54:49;100476.09;;;19.94;100.00
13968;BME280;39536;52.198;9.920;2023-07-13T01:57:17;100468.25;;;19.92;100.00
13968;BME280;39536;52.198;9.920;2023-07-13T01:59:43;100465.16;;;19.98;100.00
13968;BME280;39536;52.198;9.920;2023-07-13T02:02:10;100470.00;;;20.04;100.00
13968;BME280;39536;52.198;9.920;2023-07-13T02:04:36;100466.91;;;20.11;100.00
13968;BME280;39536;52.198;9.920;2023-07-13T02:07:04;100473.44;;;20.18;100.00
13968;BME280;39536;52.198;9.920;2023-07-13T02:09:30;100468.97;;;20.18;100.00
13968;BME280;39536;52.198;9.920;2023-07-13T02:11:57;100473.41;;;20.06;100.00
13968;BME280;39536;52.198;9.920;2023-07-13T02:14:25;100464.66;;;19.93;100.00
13968;BME280;39536;52.198;9.920;2023-07-13T02:16:51;100475.78;;;19.86;100.00
13968;BME280;39536;52.198;9.920;2023-07-13T02:19:18;100478.75;;;19.94;100.00
13968;BME280;39536;52.198;9.920;2023-07-13T02:21:44;100474.59;;;19.90;100.00
13968;BME280;39536;52.198;9.920;2023-07-13T02:24:11;100478.50;;;19.97;100.00
13968;BME280;39536;52.198;9.920;2023-07-13T02:26:42;100476.59;;;19.99;100.00
13968;BME280;39536;52.198;9.920;2023-07-13T02:29:09;100487.16;;;19.99;100.00
13968;BME280;39536;52.198;9.920;2023-07-13T02:31:37;100485.81;;;19.93;100.00
13968;BME280;39536;52.198;9.920;2023-07-13T02:34:04;100488.28;;;19.83;100.00
13968;BME280;39536;52.198;9.920;2023-07-13T02:36:31;100487.88;;;19.77;100.00
13968;BME280;39536;52.198;9.920;2023-07-13T02:39:00;100480.91;;;19.63;100.00
13968;BME280;39536;52.198;9.920;2023-07-13T02:41:28;100488.34;;;19.45;100.00
13968;BME280;39536;52.198;9.920;2023-07-13T02:43:55;100488.56;;;19.29;100.00
13968;BME280;39536;52.198;9.920;2023-07-13T02:46:28;100479.69;;;19.05;100.00
13968;BME280;39536;52.198;9.920;2023-07-13T02:48:55;100478.31;;;19.12;100.00
13968;BME280;39536;52.198;9.920;2023-07-13T02:51:22;100479.91;;;19.14;100.00
13968;BME280;39536;52.198;9.920;2023-07-13T02:53:49;100487.19;;;19.11;100.00
13968;BME280;39536;52.198;9.920;2023-07-13T02:56:15;100485.06;;;19.03;100.00
13968;BME280;39536;52.198;9.920;2023-07-13T02:58:42;100490.06;;;18.95;100.00
13968;BME280;39536;52.198;9.920;2023-07-13T03:01:10;100490.56;;;19.00;100.00
13968;BME280;39536;52.198;9.920;2023-07-13T03:03:37;100484.94;;;18.66;100.00
13968;BME280;39536;52.198;9.920;2023-07-13T03:06:05;100485.03;;;18.65;100.00
13968;BME280;39536;52.198;9.920;2023-07-13T03:08:33;100491.50;;;18.74;100.00
13968;BME280;39536;52.198;9.920;2023-07-13T03:11:00;100498.16;;;18.79;100.00
13968;BME280;39536;52.198;9.920;2023-07-13T03:13:27;100492.34;;;18.87;100.00
13968;BME280;39536;52.198;9.920;2023-07-13T03:15:54;100482.44;;;18.90;100.00
13968;BME280;39536;52.198;9.920;2023-07-13T03:18:21;100486.25;;;19.12;100.00
13968;BME280;39536;52.198;9.920;2023-07-13T03:20:50;100484.88;;;19.06;100.00
13968;BME280;39536;52.198;9.920;2023-07-13T03:23:18;100492.16;;;19.15;100.00
13968;BME280;39536;52.198;9.920;2023-07-13T03:25:45;100496.59;;;19.02;100.00
13968;BME280;39536;52.198;9.920;2023-07-13T03:28:12;100491.00;;;19.07;100.00
13968;BME280;39536;52.198;9.920;2023-07-13T03:30:38;100490.81;;;19.23;100.00
13968;BME280;39536;52.198;9.920;2023-07-13T03:33:05;100494.16;;;19.12;100.00
13968;BME280;39536;52.198;9.920;2023-07-13T03:35:32;100496.38;;;19.18;100.00
13968;BME280;39536;52.198;9.920;2023-07-13T03:37:58;100496.59;;;19.28;100.00
13968;BME280;39536;52.198;9.920;2023-07-13T03:40:27;100498.59;;;19.37;100.00
13968;BME280;39536;52.198;9.920;2023-07-13T03:42:54;100499.53;;;19.36;100.00
13968;BME280;39536;52.198;9.920;2023-07-13T03:45:20;100503.47;;;19.30;100.00
13968;BME280;39536;52.198;9.920;2023-07-13T03:47:47;100505.47;;;19.14;100.00
13968;BME280;39536;52.198;9.920;2023-07-13T03:50:13;100507.06;;;18.91;100.00
13968;BME280;39536;52.198;9.920;2023-07-13T03:52:40;100507.78;;;18.93;100.00
13968;BME280;39536;52.198;9.920;2023-07-13T03:55:07;100509.19;;;18.72;100.00
13968;BME280;39536;52.198;9.920;2023-07-13T03:57:35;100496.13;;;18.70;100.00
13968;BME280;39536;52.198;9.920;2023-07-13T04:00:02;100499.09;;;18.78;100.00
13968;BME280;39536;52.198;9.920;2023-07-13T04:02:29;100501.09;;;18.75;100.00
13968;BME280;39536;52.198;9.920;2023-07-13T04:04:56;100494.41;;;18.69;100.00
13968;BME280;39536;52.198;9.920;2023-07-13T04:07:23;100504.75;;;18.59;100.00
13968;BME280;39536;52.198;9.920;2023-07-13T04:09:49;100501.41;;;18.70;100.00
13968;BME280;39536;52.198;9.920;2023-07-13T04:12:16;100501.66;;;18.80;100.00
13968;BME280;39536;52.198;9.920;2023-07-13T04:14:44;100499.09;;;18.78;100.00
13968;BME280;39536;52.198;9.920;2023-07-13T04:17:10;100502.44;;;18.67;100.00
13968;BME280;39536;52.198;9.920;2023-07-13T04:19:37;100509.03;;;18.87;100.00
13968;BME280;39536;52.198;9.920;2023-07-13T04:22:04;100498.16;;;18.79;100.00
13968;BME280;39536;52.198;9.920;2023-07-13T04:24:31;100508.00;;;18.90;100.00
13968;BME280;39536;52.198;9.920;2023-07-13T04:26:57;100510.22;;;18.96;100.00
13968;BME280;39536;52.198;9.920;2023-07-13T04:29:24;100507.16;;;18.89;100.00
13968;BME280;39536;52.198;9.920;2023-07-13T04:31:52;100509.69;;;18.91;100.00
13968;BME280;39536;52.198;9.920;2023-07-13T04:34:19;100508.53;;;19.08;100.00
13968;BME280;39536;52.198;9.920;2023-07-13T04:36:45;100519.31;;;19.30;100.00
13968;BME280;39536;52.198;9.920;2023-07-13T04:39:12;100514.56;;;19.35;100.00
13968;BME280;39536;52.198;9.920;2023-07-13T04:41:39;100518.88;;;19.49;100.00
13968;BME280;39536;52.198;9.920;2023-07-13T04:44:05;100518.44;;;19.68;100.00
13968;BME280;39536;52.198;9.920;2023-07-13T04:46:32;100520.38;;;19.66;100.00
13968;BME280;39536;52.198;9.920;2023-07-13T04:49:00;100522.03;;;19.54;100.00
13968;BME280;39536;52.198;9.920;2023-07-13T04:51:29;100532.06;;;19.49;100.00
13968;BME280;39536;52.198;9.920;2023-07-13T04:53:55;100533.13;;;19.47;100.00
13968;BME280;39536;52.198;9.920;2023-07-13T04:56:22;100529.22;;;19.39;100.00
13968;BME280;39536;52.198;9.920;2023-07-13T04:58:48;100534.44;;;19.41;100.00
13968;BME280;39536;52.198;9.920;2023-07-13T05:01:15;100532.94;;;19.37;100.00
13968;BME280;39536;52.198;9.920;2023-07-13T05:03:42;100534.44;;;19.41;100.00
13968;BME280;39536;52.198;9.920;2023-07-13T05:06:10;100534.91;;;19.72;100.00
13968;BME280;39536;52.198;9.920;2023-07-13T05:08:36;100542.63;;;19.75;100.00
13968;BME280;39536;52.198;9.920;2023-07-13T05:11:04;100547.41;;;19.70;100.00
13968;BME280;39536;52.198;9.920;2023-07-13T05:13:32;100546.47;;;19.71;100.00
13968;BME280;39536;52.198;9.920;2023-07-13T05:16:00;100555.13;;;19.60;100.00
13968;BME280;39536;52.198;9.920;2023-07-13T05:18:28;100549.28;;;19.80;100.00
13968;BME280;39536;52.198;9.920;2023-07-13T05:20:57;100557.75;;;19.86;100.00
13968;BME280;39536;52.198;9.920;2023-07-13T05:23:26;100550.63;;;19.99;100.00
13968;BME280;39536;52.198;9.920;2023-07-13T05:25:52;100558.47;;;20.00;100.00
13968;BME280;39536;52.198;9.920;2023-07-13T05:28:19;100561.38;;;20.08;100.00
13968;BME280;39536;52.198;9.920;2023-07-13T05:30:45;100565.75;;;20.10;100.00
13968;BME280;39536;52.198;9.920;2023-07-13T05:33:12;100563.09;;;19.97;100.00
13968;BME280;39536;52.198;9.920;2023-07-13T05:35:39;100567.16;;;19.77;100.00
13968;BME280;39536;52.198;9.920;2023-07-13T05:38:05;100571.50;;;19.78;100.00
13968;BME280;39536;52.198;9.920;2023-07-13T05:40:33;100573.00;;;19.69;100.00
13968;BME280;39536;52.198;9.920;2023-07-13T05:43:00;100575.50;;;19.83;100.00
13968;BME280;39536;52.198;9.920;2023-07-13T05:45:26;100584.50;;;19.94;100.00
13968;BME280;39536;52.198;9.920;2023-07-13T05:47:53;100565.22;;;20.04;100.00
13968;BME280;39536;52.198;9.920;2023-07-13T05:50:19;100575.44;;;20.09;100.00
13968;BME280;39536;52.198;9.920;2023-07-13T05:52:46;100572.31;;;20.04;100.00
13968;BME280;39536;52.198;9.920;2023-07-13T05:55:13;100578.91;;;20.22;100.00
13968;BME280;39536;52.198;9.920;2023-07-13T05:57:41;100573.13;;;20.41;100.00
13968;BME280;39536;52.198;9.920;2023-07-13T06:00:12;100584.09;;;20.48;100.00
13968;BME280;39536;52.198;9.920;2023-07-13T06:02:39;100576.94;;;20.37;100.00
13968;BME280;39536;52.198;9.920;2023-07-13T06:05:06;100582.09;;;20.15;100.00
13968;BME280;39536;52.198;9.920;2023-07-13T06:07:32;100585.28;;;20.20;100.00
13968;BME280;39536;52.198;9.920;2023-07-13T06:09:59;100588.22;;;20.28;100.00
13968;BME280;39536;52.198;9.920;2023-07-13T06:12:25;100584.81;;;20.26;100.00
13968;BME280;39536;52.198;9.920;2023-07-13T06:14:53;100574.06;;;20.16;100.00
13968;BME280;39536;52.198;9.920;2023-07-13T06:17:20;100583.28;;;20.11;100.00
13968;BME280;39536;52.198;9.920;2023-07-13T06:19:46;100576.41;;;20.08;100.00
13968;BME280;39536;52.198;9.920;2023-07-13T06:22:13;100590.38;;;20.10;100.00
13968;BME280;39536;52.198;9.920;2023-07-13T06:24:39;100586.72;;;20.24;100.00
13968;BME280;39536;52.198;9.920;2023-07-13T06:27:06;100579.09;;;20.32;100.00
13968;BME280;39536;52.198;9.920;2023-07-13T06:29:33;100584.53;;;20.18;100.00
13968;BME280;39536;52.198;9.920;2023-07-13T06:32:01;100597.91;;;20.03;100.00
13968;BME280;39536;52.198;9.920;2023-07-13T06:34:27;100586.47;;;20.16;100.00
13968;BME280;39536;52.198;9.920;2023-07-13T06:36:54;100594.53;;;20.01;100.00
13968;BME280;39536;52.198;9.920;2023-07-13T06:39:20;100591.22;;;20.11;100.00
13968;BME280;39536;52.198;9.920;2023-07-13T06:41:47;100589.94;;;20.16;100.00
13968;BME280;39536;52.198;9.920;2023-07-13T06:44:13;100597.69;;;20.06;100.00
13968;BME280;39536;52.198;9.920;2023-07-13T06:46:40;100593.06;;;20.21;100.00
13968;BME280;39536;52.198;9.920;2023-07-13T06:49:09;100593.56;;;20.02;100.00
13968;BME280;39536;52.198;9.920;2023-07-13T06:51:35;100597.38;;;19.98;100.00
13968;BME280;39536;52.198;9.920;2023-07-13T06:54:02;100611.00;;;20.05;100.00
13968;BME280;39536;52.198;9.920;2023-07-13T06:56:29;100607.22;;;19.96;100.00
13968;BME280;39536;52.198;9.920;2023-07-13T06:58:56;100605.44;;;19.84;100.00
13968;BME280;39536;52.198;9.920;2023-07-13T07:01:23;100609.13;;;19.94;100.00
13968;BME280;39536;52.198;9.920;2023-07-13T07:03:49;100607.44;;;19.93;100.00
13968;BME280;39536;52.198;9.920;2023-07-13T07:06:19;100609.16;;;19.81;100.00
13968;BME280;39536;52.198;9.920;2023-07-13T07:08:49;100609.16;;;19.81;100.00
13968;BME280;39536;52.198;9.920;2023-07-13T07:11:18;100600.50;;;19.67;100.00
13968;BME280;39536;52.198;9.920;2023-07-13T07:13:45;100607.75;;;19.89;100.00
13968;BME280;39536;52.198;9.920;2023-07-13T07:16:11;100613.28;;;19.73;100.00
13968;BME280;39536;52.198;9.920;2023-07-13T07:18:38;100608.50;;;19.78;100.00
13968;BME280;39536;52.198;9.920;2023-07-13T07:21:05;100608.81;;;19.60;100.00
13968;BME280;39536;52.198;9.920;2023-07-13T07:23:33;100605.78;;;19.67;100.00
13968;BME280;39536;52.198;9.920;2023-07-13T07:25:59;100607.97;;;19.60;100.00
13968;BME280;39536;52.198;9.920;2023-07-13T07:28:26;100609.13;;;19.43;100.00
13968;BME280;39536;52.198;9.920;2023-07-13T07:30:55;100615.50;;;19.53;100.00
13968;BME280;39536;52.198;9.920;2023-07-13T07:33:22;100612.97;;;19.65;100.00
13968;BME280;39536;52.198;9.920;2023-07-13T07:35:49;100609.88;;;19.71;100.00
13968;BME280;39536;52.198;9.920;2023-07-13T07:38:16;100607.34;;;19.56;100.00
13968;BME280;39536;52.198;9.920;2023-07-13T07:40:44;100614.53;;;19.54;100.00
13968;BME280;39536;52.198;9.920;2023-07-13T07:43:11;100610.50;;;19.61;100.00
13968;BME280;39536;52.198;9.920;2023-07-13T07:45:39;100607.59;;;19.66;100.00
13968;BME280;39536;52.198;9.920;2023-07-13T07:48:07;100610.50;;;19.87;100.00
13968;BME280;39536;52.198;9.920;2023-07-13T07:50:35;100614.66;;;19.78;100.00
13968;BME280;39536;52.198;9.920;2023-07-13T07:53:04;100630.59;;;19.90;100.00
13968;BME280;39536;52.198;9.920;2023-07-13T07:55:33;100616.88;;;19.84;100.00
13968;BME280;39536;52.198;9.920;2023-07-13T07:58:01;100620.78;;;19.79;100.00
13968;BME280;39536;52.198;9.920;2023-07-13T08:00:28;100620.16;;;19.88;100.00
13968;BME280;39536;52.198;9.920;2023-07-13T08:02:57;100610.69;;;19.97;100.00
13968;BME280;39536;52.198;9.920;2023-07-13T08:05:23;100624.69;;;19.86;100.00
13968;BME280;39536;52.198;9.920;2023-07-13T08:07:50;100613.13;;;20.13;100.00
13968;BME280;39536;52.198;9.920;2023-07-13T08:10:17;100617.31;;;20.15;100.00
13968;BME280;39536;52.198;9.920;2023-07-13T08:12:44;100622.84;;;19.99;100.00
13968;BME280;39536;52.198;9.920;2023-07-13T08:15:14;100620.09;;;20.14;100.00
13968;BME280;39536;52.198;9.920;2023-07-13T08:17:41;100609.78;;;20.35;100.00
13968;BME280;39536;52.198;9.920;2023-07-13T08:20:11;100618.56;;;20.35;100.00
13968;BME280;39536;52.198;9.920;2023-07-13T08:22:44;100612.69;;;20.43;100.00
13968;BME280;39536;52.198;9.920;2023-07-13T08:25:11;100623.59;;;20.51;100.00
13968;BME280;39536;52.198;9.920;2023-07-13T08:27:38;100621.00;;;20.62;100.00
13968;BME280;39536;52.198;9.920;2023-07-13T08:30:05;100633.03;;;20.79;100.00
13968;BME280;39536;52.198;9.920;2023-07-13T08:32:36;100622.38;;;20.68;100.00
13968;BME280;39536;52.198;9.920;2023-07-13T08:35:03;100621.47;;;20.80;100.00
13968;BME280;39536;52.198;9.920;2023-07-13T08:37:30;100622.03;;;20.72;100.00
13968;BME280;39536;52.198;9.920;2023-07-13T08:39:57;100625.63;;;20.71;100.00
13968;BME280;39536;52.198;9.920;2023-07-13T08:42:32;100622.66;;;20.76;100.00
13968;BME280;39536;52.198;9.920;2023-07-13T08:45:08;100625.22;;;20.65;100.00
13968;BME280;39536;52.198;9.920;2023-07-13T08:47:43;100624.25;;;20.79;100.00
13968;BME280;39536;52.198;9.920;2023-07-13T08:50:15;100631.66;;;20.97;100.00
13968;BME280;39536;52.198;9.920;2023-07-13T08:52:43;100621.97;;;20.85;100.00
13968;BME280;39536;52.198;9.920;2023-07-13T08:55:15;100629.84;;;20.98;100.00
13968;BME280;39536;52.198;9.920;2023-07-13T08:57:49;100628.09;;;21.10;100.00
13968;BME280;39536;52.198;9.920;2023-07-13T09:00:19;100630.13;;;21.06;100.00
13968;BME280;39536;52.198;9.920;2023-07-13T09:02:54;100629.66;;;21.12;100.00
13968;BME280;39536;52.198;9.920;2023-07-13T09:05:26;100637.63;;;21.48;100.00
13968;BME280;39536;52.198;9.920;2023-07-13T09:08:04;100628.84;;;21.70;100.00
13968;BME280;39536;52.198;9.920;2023-07-13T09:10:39;100629.56;;;21.72;100.00
13968;BME280;39536;52.198;9.920;2023-07-13T09:13:18;100628.91;;;21.45;100.00
13968;BME280;39536;52.198;9.920;2023-07-13T09:15:49;100627.88;;;21.59;100.00
13968;BME280;39536;52.198;9.920;2023-07-13T09:18:21;100632.59;;;21.78;100.00
13968;BME280;39536;52.198;9.920;2023-07-13T09:20:53;100637.41;;;21.96;100.00
13968;BME280;39536;52.198;9.920;2023-07-13T09:23:22;100636.78;;;22.14;100.00
13968;BME280;39536;52.198;9.920;2023-07-13T09:25:53;100633.44;;;22.12;100.00
13968;BME280;39536;52.198;9.920;2023-07-13T09:28:24;100637.19;;;22.21;100.00
13968;BME280;39536;52.198;9.920;2023-07-13T09:30:55;100636.31;;;21.98;100.00
13968;BME280;39536;52.198;9.920;2023-07-13T09:33:26;100636.78;;;21.70;100.00
13968;BME280;39536;52.198;9.920;2023-07-13T09:35:54;100642.91;;;21.48;100.00
13968;BME280;39536;52.198;9.920;2023-07-13T09:38:24;100643.75;;;21.48;100.00
13968;BME280;39536;52.198;9.920;2023-07-13T09:41:00;100636.53;;;21.50;100.00
13968;BME280;39536;52.198;9.920;2023-07-13T09:43:34;100642.59;;;21.86;100.00
13968;BME280;39536;52.198;9.920;2023-07-13T09:46:01;100636.09;;;21.90;100.00
13968;BME280;39536;52.198;9.920;2023-07-13T09:48:48;100645.31;;;21.51;100.00
13968;BME280;39536;52.198;9.920;2023-07-13T09:51:43;100633.28;;;21.47;100.00
13968;BME280;39536;52.198;9.920;2023-07-13T09:54:21;100638.34;;;21.83;100.00
13968;BME280;39536;52.198;9.920;2023-07-13T09:56:54;100637.13;;;21.65;100.00
13968;BME280;39536;52.198;9.920;2023-07-13T09:59:28;100632.94;;;21.96;100.00
13968;BME280;39536;52.198;9.920;2023-07-13T10:01:55;100635.59;;;22.30;100.00
13968;BME280;39536;52.198;9.920;2023-07-13T10:04:32;100626.53;;;22.44;100.00
13968;BME280;39536;52.198;9.920;2023-07-13T10:07:06;100631.41;;;22.16;100.00
13968;BME280;39536;52.198;9.920;2023-07-13T10:09:33;100648.75;;;22.31;100.00
13968;BME280;39536;52.198;9.920;2023-07-13T10:12:00;100637.16;;;22.10;100.00
13968;BME280;39536;52.198;9.920;2023-07-13T10:14:30;100631.84;;;22.44;100.00
13968;BME280;39536;52.198;9.920;2023-07-13T10:16:59;100621.19;;;22.55;100.00
13968;BME280;39536;52.198;9.920;2023-07-13T10:19:31;100606.22;;;22.54;100.00
13968;BME280;39536;52.198;9.920;2023-07-13T10:22:00;100633.63;;;22.54;100.00
13968;BME280;39536;52.198;9.920;2023-07-13T10:24:31;100624.38;;;22.81;100.00
13968;BME280;39536;52.198;9.920;2023-07-13T10:27:15;100611.34;;;22.78;100.00
13968;BME280;39536;52.198;9.920;2023-07-13T10:29:45;100624.91;;;22.64;100.00
13968;BME280;39536;52.198;9.920;2023-07-13T10:32:13;100633.50;;;22.99;100.00
13968;BME280;39536;52.198;9.920;2023-07-13T10:34:46;100636.56;;;23.37;98.14
13968;BME280;39536;52.198;9.920;2023-07-13T10:37:24;100631.34;;;23.56;95.66
13968;BME280;39536;52.198;9.920;2023-07-13T10:40:02;100637.44;;;23.05;98.25
13968;BME280;39536;52.198;9.920;2023-07-13T10:42:38;100632.75;;;22.65;100.00
13968;BME280;39536;52.198;9.920;2023-07-13T10:45:14;100629.81;;;23.12;100.00
13968;BME280;39536;52.198;9.920;2023-07-13T10:47:42;100632.88;;;23.28;100.00
13968;BME280;39536;52.198;9.920;2023-07-13T10:50:16;100634.91;;;23.66;92.77
13968;BME280;39536;52.198;9.920;2023-07-13T10:52:47;100629.16;;;23.40;90.22
13968;BME280;39536;52.198;9.920;2023-07-13T10:55:33;100638.81;;;22.99;95.75
13968;BME280;39536;52.198;9.920;2023-07-13T10:58:02;100641.25;;;22.80;94.96
13968;BME280;39536;52.198;9.920;2023-07-13T11:00:31;100634.44;;;22.98;92.53
13968;BME280;39536;52.198;9.920;2023-07-13T11:03:00;100633.69;;;23.08;95.24
13968;BME280;39536;52.198;9.920;2023-07-13T11:05:32;100640.66;;;23.41;92.49
13968;BME280;39536;52.198;9.920;2023-07-13T11:08:13;100631.84;;;23.40;91.88
13968;BME280;39536;52.198;9.920;2023-07-13T11:10:52;100637.34;;;23.27;94.84
13968;BME280;39536;52.198;9.920;2023-07-13T11:16:46;100628.81;;;24.06;87.12
13968;BME280;39536;52.198;9.920;2023-07-13T11:19:38;100634.34;;;24.24;83.79
13968;BME280;39536;52.198;9.920;2023-07-13T11:22:16;100629.41;;;24.19;81.98
13968;BME280;39536;52.198;9.920;2023-07-13T11:24:58;100640.66;;;23.92;82.18
13968;BME280;39536;52.198;9.920;2023-07-13T11:27:39;100627.13;;;23.54;84.24
13968;BME280;39536;52.198;9.920;2023-07-13T11:32:52;100644.91;;;23.32;88.21
13968;BME280;39536;52.198;9.920;2023-07-13T11:35:33;100644.28;;;23.19;88.67
13968;BME280;39536;52.198;9.920;2023-07-13T11:38:02;100638.34;;;23.36;90.12
13968;BME280;39536;52.198;9.920;2023-07-13T11:40:29;100646.66;;;23.85;88.74
13968;BME280;39536;52.198;9.920;2023-07-13T11:42:59;100638.75;;;24.54;85.33
13968;BME280;39536;52.198;9.920;2023-07-13T11:45:26;100638.75;;;24.54;81.13
13968;BME280;39536;52.198;9.920;2023-07-13T11:47:53;100636.25;;;24.43;80.19
13968;BME280;39536;52.198;9.920;2023-07-13T11:50:23;100629.63;;;23.97;82.80
13968;BME280;39536;52.198;9.920;2023-07-13T11:52:52;100635.69;;;24.49;82.78
13968;BME280;39536;52.198;9.920;2023-07-13T11:55:23;100623.06;;;25.09;79.66
13968;BME280;39536;52.198;9.920;2023-07-13T11:57:51;100622.25;;;25.09;76.85
13968;BME280;39536;52.198;9.920;2023-07-13T12:00:23;100621.66;;;25.44;79.00
13968;BME280;39536;52.198;9.920;2023-07-13T12:02:55;100616.78;;;24.52;80.38
13968;BME280;39536;52.198;9.920;2023-07-13T12:05:22;100626.94;;;24.37;83.96
13968;BME280;39536;52.198;9.920;2023-07-13T12:07:50;100630.31;;;24.39;82.47
13968;BME280;39536;52.198;9.920;2023-07-13T12:10:22;100621.97;;;24.23;82.79
13968;BME280;39536;52.198;9.920;2023-07-13T12:12:53;100610.44;;;24.43;83.77
13968;BME280;39536;52.198;9.920;2023-07-13T12:15:20;100625.59;;;24.53;81.68
13968;BME280;39536;52.198;9.920;2023-07-13T12:17:48;100602.25;;;24.35;83.34
13968;BME280;39536;52.198;9.920;2023-07-13T12:20:24;100632.28;;;23.97;80.36
13968;BME280;39536;52.198;9.920;2023-07-13T12:22:52;100621.19;;;23.92;81.71
13968;BME280;39536;52.198;9.920;2023-07-13T12:25:20;100615.53;;;24.16;80.38
13968;BME280;39536;52.198;9.920;2023-07-13T12:27:50;100616.47;;;24.46;79.62
13968;BME280;39536;52.198;9.920;2023-07-13T12:30:26;100623.34;;;25.06;79.41
13968;BME280;39536;52.198;9.920;2023-07-13T12:32:59;100627.72;;;24.98;77.75
13968;BME280;39536;52.198;9.920;2023-07-13T12:35:28;100627.44;;;24.62;79.41
13968;BME280;39536;52.198;9.920;2023-07-13T12:37:57;100624.94;;;24.80;81.22
13968;BME280;39536;52.198;9.920;2023-07-13T12:40:32;100626.47;;;24.23;83.11
13968;BME280;39536;52.198;9.920;2023-07-13T12:43:01;100638.91;;;24.12;83.96
13968;BME280;39536;52.198;9.920;2023-07-13T12:45:30;100634.78;;;24.39;84.23
13968;BME280;39536;52.198;9.920;2023-07-13T12:47:59;100621.53;;;25.07;80.51
13968;BME280;39536;52.198;9.920;2023-07-13T12:50:34;100628.31;;;25.21;77.57
13968;BME280;39536;52.198;9.920;2023-07-13T12:53:05;100622.66;;;25.04;75.11
13968;BME280;39536;52.198;9.920;2023-07-13T12:55:41;100620.31;;;25.21;73.21